Time;durP1;ratioP1;P1;durP2;ratioP2;P2;SDS_P1;SDS_P2;PMS_P1;PMS_P2;Temp;Humidity;BMP_temperature;BMP_pressure;BME280_temperature;BME280_humidity;BME280_pressure;Samples;Min_cycle;Max_cycle;Signal;HPM_P1;HPM_P2
2023/04/08 00:02:05;;;;;;;2.55;1.75;;;;;;;;;;6176831;23;20073;-51
2023/04/08 00:04:32;;;;;;;;;;;;;;;;;;6178039;23;20398;-73
2023/04/08 00:07:06;;;;;;;2.60;1.80;;;;;;;;;;6174728;23;19916;-73
2023/04/08 00:09:33;;;;;;;3.03;1.95;;;;;;;;;;6177304;23;20021;-73
2023/04/08 00:12:00;;;;;;;2.75;1.80;;;;;;;;;;6176244;23;20025;-73
2023/04/08 00:14:37;;;;;;;2.28;1.60;;;;;;;;;;6177354;23;20103;-60
2023/04/08 00:17:04;;;;;;;2.42;1.80;;;;;;;;;;6179230;23;20080;-72
2023/04/08 00:19:32;;;;;;;;;;;;;;;;;;6179767;23;20039;-73
2023/04/08 00:22:06;;;;;;;2.65;2.00;;;;;;;;;;6178065;23;20321;-73
2023/04/08 00:24:33;;;;;;;2.65;1.88;;;;;;;;;;6178724;23;20021;-73
2023/04/08 00:27:06;;;;;;;2.80;1.88;;;;;;;;;;6179006;23;20100;-72
2023/04/08 00:29:34;;;;;;;2.90;1.70;;;;;;;;;;6179019;23;20059;-73
2023/04/08 00:32:02;;;;;;;2.75;1.85;;;;;;;;;;6153315;23;20100;-72
2023/04/08 00:34:36;;;;;;;2.20;1.70;;;;;;;;;;6178639;23;20115;-72
2023/04/08 00:37:03;;;;;;;2.60;2.15;;;;;;;;;;6177738;23;20029;-71
2023/04/08 00:39:37;;;;;;;3.95;1.67;;;;;;;;;;6178412;23;20028;-72
2023/04/08 00:42:04;;;;;;;;;;;;;;;;;;6178429;23;20021;-60
2023/04/08 00:44:32;;;;;;;4.53;1.90;;;;;;;;;;6178562;23;20003;-59
2023/04/08 00:47:06;;;;;;;3.17;2.05;;;;;;;;;;6178437;23;20103;-60
2023/04/08 00:49:33;;;;;;;2.47;1.85;;;;;;;;;;6179462;23;20577;-60
2023/04/08 00:52:07;;;;;;;3.13;1.88;;;;;;;;;;6177382;23;20035;-60
2023/04/08 00:54:41;;;;;;;1.92;1.65;;;;;;;;;;6178048;23;20028;-60
2023/04/08 00:57:14;;;;;;;2.55;1.98;;;;;;;;;;6178485;23;20023;-60
2023/04/08 00:59:42;;;;;;;2.58;1.65;;;;;;;;;;6179030;23;20021;-72
2023/04/08 01:02:24;;;;;;;5.45;1.70;;;;;;;;;;6177562;23;20129;-73
2023/04/08 01:05:01;;;;;;;4.13;1.83;;;;;;;;;;6177312;23;20021;-73
2023/04/08 01:07:36;;;;;;;1.73;1.60;;;;;;;;;;6179028;23;20099;-72
2023/04/08 01:10:18;;;;;;;2.65;2.10;;;;;;;;;;6178822;23;20104;-72
2023/04/08 01:13:07;;;;;;;3.55;1.88;;;;;;;;;;6177205;23;20021;-72
2023/04/08 01:15:36;;;;;;;3.25;1.77;;;;;;;;;;6177630;23;20028;-72
2023/04/08 01:18:13;;;;;;;5.07;1.73;;;;;;;;;;6178213;23;20029;-72
2023/04/08 01:20:41;;;;;;;2.80;1.77;;;;;;;;;;6178071;23;20120;-71
2023/04/08 01:23:27;;;;;;;2.30;1.67;;;;;;;;;;6178320;23;20087;-70
2023/04/08 01:26:01;;;;;;;2.65;1.95;;;;;;;;;;6178601;23;20032;-73
2023/04/08 01:28:29;;;;;;;4.97;2.33;;;;;;;;;;6178461;23;20025;-59
2023/04/08 01:31:03;;;;;;;4.38;1.98;;;;;;;;;;6177935;23;20031;-59
2023/04/08 01:33:31;;;;;;;5.78;1.88;;;;;;;;;;6177776;23;20021;-59
2023/04/08 01:35:58;;;;;;;5.75;1.83;;;;;;;;;;6177911;23;20057;-59
2023/04/08 01:38:33;;;;;;;3.83;2.00;;;;;;;;;;6178500;23;20025;-59
2023/04/08 01:41:00;;;;;;;6.47;2.28;;;;;;;;;;6178676;23;20029;-56
2023/04/08 01:43:34;;;;;;;2.53;1.80;;;;;;;;;;6176725;23;20024;-55
2023/04/08 01:46:01;;;;;;;2.72;1.80;;;;;;;;;;6177764;23;20475;-54
2023/04/08 01:48:29;;;;;;;3.80;2.20;;;;;;;;;;6177414;23;20124;-52
2023/04/08 01:51:04;;;;;;;3.72;1.80;;;;;;;;;;6176416;23;20020;-55
2023/04/08 01:53:31;;;;;;;3.00;1.60;;;;;;;;;;6175703;23;20418;-54
2023/04/08 01:56:03;;;;;;;3.83;1.92;;;;;;;;;;6178826;23;20109;-52
2023/04/08 01:58:39;;;;;;;2.97;2.10;;;;;;;;;;6177969;23;20025;-59
2023/04/08 02:01:10;;;;;;;3.67;1.77;;;;;;;;;;6178126;23;20099;-59
2023/04/08 02:03:44;;;;;;;2.33;1.63;;;;;;;;;;6174430;23;20055;-60
2023/04/08 02:06:18;;;;;;;2.25;1.50;;;;;;;;;;6177131;23;20063;-59
2023/04/08 02:08:45;;;;;;;2.88;2.05;;;;;;;;;;6178103;23;20028;-72
2023/04/08 02:11:31;;;;;;;2.78;1.90;;;;;;;;;;6176292;23;20033;-51
2023/04/08 02:14:06;;;;;;;2.00;1.55;;;;;;;;;;6177318;23;20386;-51
2023/04/08 02:16:42;;;;;;;2.75;2.00;;;;;;;;;;6177634;23;20061;-52
2023/04/08 02:19:13;;;;;;;2.13;1.40;;;;;;;;;;6150932;23;20539;-50
2023/04/08 02:21:49;;;;;;;2.90;1.63;;;;;;;;;;6177362;23;20052;-51
2023/04/08 02:24:23;;;;;;;3.38;1.70;;;;;;;;;;6177915;23;20032;-51
2023/04/08 02:26:58;;;;;;;5.30;1.88;;;;;;;;;;6178239;23;20025;-60
2023/04/08 02:29:26;;;;;;;2.60;1.90;;;;;;;;;;6177454;23;20021;-59
2023/04/08 02:31:53;;;;;;;3.08;1.73;;;;;;;;;;6178394;23;20100;-59
2023/04/08 02:34:28;;;;;;;2.83;1.85;;;;;;;;;;6177843;23;20664;-59
2023/04/08 02:36:55;;;;;;;3.67;2.03;;;;;;;;;;6176496;23;20079;-59
2023/04/08 02:39:31;;;;;;;3.95;2.20;;;;;;;;;;6153175;23;20029;-59
2023/04/08 02:41:58;;;;;;;2.33;1.67;;;;;;;;;;6176895;23;20056;-59
2023/04/08 02:44:25;;;;;;;3.33;2.00;;;;;;;;;;6177770;23;20064;-60
2023/04/08 02:47:00;;;;;;;1.65;1.50;;;;;;;;;;6177889;23;20027;-59
2023/04/08 02:49:27;;;;;;;2.78;1.92;;;;;;;;;;6177650;23;20107;-60
2023/04/08 02:51:54;;;;;;;3.10;2.08;;;;;;;;;;6176455;23;20561;-59
2023/04/08 02:54:28;;;;;;;2.53;1.75;;;;;;;;;;6178303;23;20025;-60
2023/04/08 02:56:55;;;;;;;2.92;1.80;;;;;;;;;;6174580;23;20103;-59
2023/04/08 02:59:29;;;;;;;2.38;1.88;;;;;;;;;;6177124;23;20025;-59
2023/04/08 03:01:56;;;;;;;5.22;2.17;;;;;;;;;;6179088;23;20104;-59
2023/04/08 03:04:23;;;;;;;2.30;1.80;;;;;;;;;;6177424;23;20459;-54
2023/04/08 03:06:58;;;;;;;3.22;1.98;;;;;;;;;;6174781;23;20021;-60
2023/04/08 03:09:25;;;;;;;4.50;2.13;;;;;;;;;;6176981;23;20107;-59
2023/04/08 03:12:11;;;;;;;3.00;1.85;;;;;;;;;;6176003;23;20048;-60
2023/04/08 03:14:45;;;;;;;2.22;1.83;;;;;;;;;;6177875;23;20027;-59
2023/04/08 03:17:20;;;;;;;2.97;2.03;;;;;;;;;;6175891;23;20475;-60
2023/04/08 03:19:47;;;;;;;;;;;;;;;;;;6177083;23;20021;-60
2023/04/08 03:22:14;;;;;;;2.30;1.70;;;;;;;;;;6177991;23;20004;-53
2023/04/08 03:24:48;;;;;;;4.90;2.08;;;;;;;;;;6176776;23;20366;-53
2023/04/08 03:27:15;;;;;;;2.50;1.92;;;;;;;;;;6174556;23;20103;-50
2023/04/08 03:29:49;;;;;;;2.53;1.63;;;;;;;;;;6177500;23;20071;-53
2023/04/08 03:32:16;;;;;;;3.65;2.00;;;;;;;;;;6177852;23;20176;-58
2023/04/08 03:34:43;;;;;;;3.70;1.98;;;;;;;;;;6176091;23;20549;-60
2023/04/08 03:37:19;;;;;;;2.60;1.65;;;;;;;;;;6176032;23;20353;-72
2023/04/08 03:39:47;;;;;;;2.63;1.70;;;;;;;;;;6176070;23;20028;-72
2023/04/08 03:42:21;;;;;;;2.30;1.77;;;;;;;;;;6176801;23;20096;-72
2023/04/08 03:44:48;;;;;;;2.50;1.80;;;;;;;;;;6177153;23;20064;-71
2023/04/08 03:47:15;;;;;;;3.47;1.70;;;;;;;;;;6178315;23;20501;-72
2023/04/08 03:49:49;;;;;;;2.83;1.83;;;;;;;;;;6179607;23;20025;-70
2023/04/08 03:52:16;;;;;;;5.25;2.10;;;;;;;;;;6179074;23;20101;-59
2023/04/08 03:54:50;;;;;;;2.42;1.63;;;;;;;;;;6178565;23;20044;-59
2023/04/08 03:57:17;;;;;;;2.08;1.58;;;;;;;;;;6178618;23;20068;-60
2023/04/08 03:59:44;;;;;;;1.73;1.58;;;;;;;;;;6178381;23;20099;-59
2023/04/08 04:02:18;;;;;;;2.55;1.88;;;;;;;;;;6179597;23;20025;-59
2023/04/08 04:04:45;;;;;;;2.40;2.00;;;;;;;;;;6178400;23;20732;-52
2023/04/08 04:07:12;;;;;;;2.53;1.90;;;;;;;;;;6177905;23;20024;-53
2023/04/08 04:09:46;;;;;;;2.25;1.83;;;;;;;;;;6177714;23;20021;-50
2023/04/08 04:12:20;;;;;;;3.00;2.10;;;;;;;;;;6177012;23;20104;-53
2023/04/08 04:15:00;;;;;;;3.95;1.90;;;;;;;;;;6179320;23;20492;-49
2023/04/08 04:17:28;;;;;;;2.65;1.88;;;;;;;;;;6180397;23;20083;-54
2023/04/08 04:20:09;;;;;;;3.45;2.00;;;;;;;;;;6176432;23;20021;-75
2023/04/08 04:22:36;;;;;;;3.63;1.95;;;;;;;;;;6178193;23;20031;-75
2023/04/08 04:25:10;;;;;;;4.03;2.17;;;;;;;;;;6180063;23;20025;-76
2023/04/08 04:27:37;;;;;;;2.38;1.67;;;;;;;;;;6180313;23;20025;-74
2023/04/08 04:30:06;;;;;;;3.35;1.63;;;;;;;;;;6180857;23;20104;-75
2023/04/08 04:32:40;;;;;;;2.50;1.75;;;;;;;;;;6180654;23;20469;-75
2023/04/08 04:35:07;;;;;;;3.50;1.63;;;;;;;;;;6179607;23;20028;-75
2023/04/08 04:37:35;;;;;;;1.70;1.40;;;;;;;;;;6181340;23;20096;-75
2023/04/08 04:40:09;;;;;;;3.20;1.95;;;;;;;;;;6180414;23;20084;-75
2023/04/08 04:42:36;;;;;;;1.88;1.55;;;;;;;;;;6180044;23;20107;-74
2023/04/08 04:45:11;;;;;;;2.70;1.70;;;;;;;;;;6179296;23;20128;-75
2023/04/08 04:47:38;;;;;;;;;;;;;;;;;;6180635;23;20128;-75
2023/04/08 04:50:05;;;;;;;2.58;1.83;;;;;;;;;;6180801;23;19931;-75
2023/04/08 04:52:40;;;;;;;2.80;1.90;;;;;;;;;;6179886;23;20052;-75
2023/04/08 04:55:07;;;;;;;;;;;;;;;;;;6180637;23;20525;-75
2023/04/08 04:57:41;;;;;;;4.32;2.05;;;;;;;;;;6177765;23;19983;-75
2023/04/08 05:00:09;;;;;;;2.55;1.80;;;;;;;;;;6178522;23;20096;-74
2023/04/08 05:02:36;;;;;;;3.25;1.95;;;;;;;;;;6180352;23;20025;-75
2023/04/08 05:05:10;;;;;;;3.17;1.80;;;;;;;;;;6176455;23;20100;-74
2023/04/08 05:07:38;;;;;;;3.22;1.90;;;;;;;;;;6178943;23;20031;-75
2023/04/08 05:10:05;;;;;;;;;;;;;;;;;;6180008;23;20029;-74
2023/04/08 05:12:39;;;;;;;3.63;2.00;;;;;;;;;;6180351;23;19924;-74
2023/04/08 05:15:06;;;;;;;3.08;2.17;;;;;;;;;;6178294;23;20472;-75
2023/04/08 05:17:40;;;;;;;2.33;1.70;;;;;;;;;;6179351;23;20025;-74
2023/04/08 05:20:13;;;;;;;3.70;2.10;;;;;;;;;;6178895;23;20052;-75
2023/04/08 05:22:48;;;;;;;2.50;1.90;;;;;;;;;;6180178;23;20497;-74
2023/04/08 05:25:23;;;;;;;3.67;2.00;;;;;;;;;;6180698;23;20021;-75
2023/04/08 05:27:57;;;;;;;3.90;1.85;;;;;;;;;;6179725;23;20498;-75
2023/04/08 05:30:31;;;;;;;2.67;1.90;;;;;;;;;;6179984;23;20478;-74
2023/04/08 05:33:05;;;;;;;2.85;1.88;;;;;;;;;;6181559;23;20545;-75
2023/04/08 05:35:32;;;;;;;;;;;;;;;;;;6185115;23;20025;-74
2023/04/08 05:38:06;;;;;;;2.95;1.90;;;;;;;;;;6180055;23;19931;-75
2023/04/08 05:40:33;;;;;;;2.38;1.80;;;;;;;;;;6179806;23;20048;-75
2023/04/08 05:43:00;;;;;;;4.00;2.10;;;;;;;;;;6178912;23;20136;-75
2023/04/08 05:45:35;;;;;;;5.47;2.10;;;;;;;;;;6180060;23;20021;-75
2023/04/08 05:48:02;;;;;;;5.13;2.08;;;;;;;;;;6180598;23;20063;-76
2023/04/08 05:50:29;;;;;;;2.97;2.20;;;;;;;;;;6180897;23;20029;-75
2023/04/08 05:53:03;;;;;;;4.40;2.17;;;;;;;;;;6179930;23;20055;-74
2023/04/08 05:55:30;;;;;;;2.33;1.98;;;;;;;;;;6179550;23;20406;-74
2023/04/08 05:58:04;;;;;;;4.30;2.40;;;;;;;;;;6179404;23;20545;-75
2023/04/08 06:00:31;;;;;;;2.95;2.10;;;;;;;;;;6178116;23;20044;-74
2023/04/08 06:02:58;;;;;;;2.28;1.90;;;;;;;;;;6178108;23;20489;-75
2023/04/08 06:05:32;;;;;;;2.83;1.90;;;;;;;;;;6179433;23;20025;-75
2023/04/08 06:07:59;;;;;;;3.58;2.15;;;;;;;;;;6177126;23;20354;-74
2023/04/08 06:10:33;;;;;;;4.38;2.08;;;;;;;;;;6179232;23;20060;-74
2023/04/08 06:13:00;;;;;;;5.75;2.35;;;;;;;;;;6179504;23;20437;-75
2023/04/08 06:15:27;;;;;;;3.50;2.10;;;;;;;;;;6179406;23;20533;-75
2023/04/08 06:18:01;;;;;;;3.17;1.98;;;;;;;;;;6175029;23;20103;-74
2023/04/08 06:20:35;;;;;;;2.67;2.20;;;;;;;;;;6178822;23;20025;-74
2023/04/08 06:23:09;;;;;;;4.22;2.38;;;;;;;;;;6179802;23;20064;-75
2023/04/08 06:25:36;;;;;;;5.45;2.38;;;;;;;;;;6180272;23;20060;-74
2023/04/08 06:28:04;;;;;;;3.55;2.20;;;;;;;;;;6180121;23;20021;-74
2023/04/08 06:30:38;;;;;;;3.15;2.38;;;;;;;;;;6179740;23;20029;-75
2023/04/08 06:33:05;;;;;;;2.70;2.03;;;;;;;;;;6179833;23;20109;-75
2023/04/08 06:35:32;;;;;;;3.33;2.08;;;;;;;;;;6176873;23;20020;-74
2023/04/08 06:38:06;;;;;;;4.68;2.17;;;;;;;;;;6180265;23;20021;-74
2023/04/08 06:40:33;;;;;;;3.55;2.40;;;;;;;;;;6179617;23;20052;-75
2023/04/08 06:43:00;;;;;;;5.22;2.25;;;;;;;;;;6176396;23;20104;-75
2023/04/08 06:45:34;;;;;;;2.85;1.90;;;;;;;;;;6176766;23;20112;-74
2023/04/08 06:48:01;;;;;;;;;;;;;;;;;;6179468;23;20396;-75
2023/04/08 06:50:35;;;;;;;2.53;1.80;;;;;;;;;;6178958;23;20675;-74
2023/04/08 06:53:02;;;;;;;2.47;2.03;;;;;;;;;;6178276;23;20305;-74
2023/04/08 06:55:29;;;;;;;2.90;2.10;;;;;;;;;;6177979;23;20061;-74
2023/04/08 06:58:03;;;;;;;2.83;1.92;;;;;;;;;;6178411;23;20103;-74
2023/04/08 07:00:30;;;;;;;2.55;2.15;;;;;;;;;;6178004;23;20021;-75
2023/04/08 07:03:04;;;;;;;3.00;2.15;;;;;;;;;;6178102;23;20492;-75
2023/04/08 07:05:37;;;;;;;3.30;2.20;;;;;;;;;;6179114;23;20032;-75
2023/04/08 07:08:12;;;;;;;2.95;2.08;;;;;;;;;;6178172;23;20537;-74
2023/04/08 07:10:39;;;;;;;3.22;2.13;;;;;;;;;;6178701;23;20052;-75
2023/04/08 07:13:06;;;;;;;5.70;2.05;;;;;;;;;;6177632;23;20120;-75
2023/04/08 07:15:40;;;;;;;5.05;1.85;;;;;;;;;;6178822;23;20029;-73
2023/04/08 07:18:08;;;;;;;2.35;1.98;;;;;;;;;;6177288;23;20099;-75
2023/04/08 07:20:48;;;;;;;2.55;1.83;;;;;;;;;;6175749;23;20025;-75
2023/04/08 07:23:16;;;;;;;3.63;2.00;;;;;;;;;;6176906;23;20035;-74
2023/04/08 07:25:50;;;;;;;4.65;1.77;;;;;;;;;;6177534;23;20028;-74
2023/04/08 07:28:17;;;;;;;5.57;2.05;;;;;;;;;;6177873;23;20025;-75
2023/04/08 07:30:44;;;;;;;3.58;2.10;;;;;;;;;;6178441;23;20104;-74
2023/04/08 07:33:18;;;;;;;5.13;2.20;;;;;;;;;;6177952;23;20113;-75
2023/04/08 07:35:45;;;;;;;3.50;2.20;;;;;;;;;;6178628;23;20352;-74
2023/04/08 07:38:19;;;;;;;2.30;1.90;;;;;;;;;;6177984;23;20021;-75
2023/04/08 07:40:46;;;;;;;3.65;2.10;;;;;;;;;;6178146;23;20482;-75
2023/04/08 07:43:13;;;;;;;4.07;2.35;;;;;;;;;;6179073;23;20095;-75
2023/04/08 07:45:48;;;;;;;2.25;1.83;;;;;;;;;;6179327;23;20107;-74
2023/04/08 07:48:15;;;;;;;4.03;2.45;;;;;;;;;;6179319;23;20028;-75
2023/04/08 07:50:49;;;;;;;3.45;2.08;;;;;;;;;;6179795;23;20064;-75
2023/04/08 07:53:36;;;;;;;4.03;1.80;;;;;;;;;;6178156;23;20025;-75
2023/04/08 07:56:11;;;;;;;1.95;1.60;;;;;;;;;;6178901;23;20048;-75
2023/04/08 07:58:39;;;;;;;4.07;2.08;;;;;;;;;;6177969;23;20063;-75
2023/04/08 08:01:17;;;;;;;2.63;1.98;;;;;;;;;;6177666;23;20079;-74
2023/04/08 08:03:51;;;;;;;2.85;1.75;;;;;;;;;;6176624;23;20025;-75
2023/04/08 08:06:20;;;;;;;2.78;1.95;;;;;;;;;;6178174;23;20025;-74
2023/04/08 08:08:54;;;;;;;3.53;2.00;;;;;;;;;;6177650;23;20051;-74
2023/04/08 08:11:21;;;;;;;4.75;2.00;;;;;;;;;;6177933;23;20433;-74
2023/04/08 08:13:48;;;;;;;2.47;2.00;;;;;;;;;;6179155;23;20025;-74
2023/04/08 08:16:25;;;;;;;5.00;2.45;;;;;;;;;;6176796;23;20052;-75
2023/04/08 08:18:53;;;;;;;2.60;1.90;;;;;;;;;;6178719;23;20616;-74
2023/04/08 08:21:37;;;;;;;8.05;2.42;;;;;;;;;;6178042;23;20033;-75
2023/04/08 08:24:04;;;;;;;3.50;2.00;;;;;;;;;;6178459;23;20021;-74
2023/04/08 08:26:38;;;;;;;2.42;1.90;;;;;;;;;;6177778;23;20474;-74
2023/04/08 08:29:07;;;;;;;2.90;2.30;;;;;;;;;;6178049;23;20478;-74
2023/04/08 08:31:35;;;;;;;5.35;2.10;;;;;;;;;;6175953;23;20025;-75
2023/04/08 08:34:15;;;;;;;8.93;2.42;;;;;;;;;;6178116;23;20035;-75
2023/04/08 08:36:50;;;;;;;4.32;2.15;;;;;;;;;;6180243;23;20064;-75
2023/04/08 08:39:17;;;;;;;2.80;2.05;;;;;;;;;;6179807;23;20040;-74
2023/04/08 08:41:51;;;;;;;4.25;2.05;;;;;;;;;;6179311;23;20025;-74
2023/04/08 08:44:25;;;;;;;4.50;2.40;;;;;;;;;;6180403;23;20347;-74
2023/04/08 08:46:53;;;;;;;3.53;2.25;;;;;;;;;;6178973;23;20048;-75
2023/04/08 08:49:27;;;;;;;4.85;2.03;;;;;;;;;;6179492;23;20025;-75
2023/04/08 08:51:54;;;;;;;4.00;2.50;;;;;;;;;;6178882;23;20522;-75
2023/04/08 08:54:22;;;;;;;4.07;2.75;;;;;;;;;;6179201;23;20056;-76
2023/04/08 08:56:56;;;;;;;4.35;2.70;;;;;;;;;;6179459;23;20384;-74
2023/04/08 08:59:23;;;;;;;4.10;2.35;;;;;;;;;;6178629;23;20028;-74
2023/04/08 09:01:57;;;;;;;4.28;2.25;;;;;;;;;;6179045;23;20052;-74
2023/04/08 09:04:25;;;;;;;9.00;2.67;;;;;;;;;;6179901;23;20025;-74
2023/04/08 09:07:09;;;;;;;4.63;2.63;;;;;;;;;;6178932;23;20052;-75
2023/04/08 09:09:50;;;;;;;6.93;2.80;;;;;;;;;;6178879;23;20023;-75
2023/04/08 09:12:17;;;;;;;4.53;3.00;;;;;;;;;;6179186;23;20095;-75
2023/04/08 09:14:51;;;;;;;3.10;2.58;;;;;;;;;;6178585;23;20025;-74
2023/04/08 09:17:34;;;;;;;7.70;2.90;;;;;;;;;;6178672;23;20028;-75
2023/04/08 09:20:20;;;;;;;5.85;2.70;;;;;;;;;;6175884;23;20025;-75
2023/04/08 09:22:54;;;;;;;3.67;2.67;;;;;;;;;;6178648;23;20714;-76
2023/04/08 09:25:29;;;;;;;4.28;2.75;;;;;;;;;;6178804;23;20036;-75
2023/04/08 09:27:57;;;;;;;4.95;2.70;;;;;;;;;;6179912;23;20405;-75
2023/04/08 09:30:25;;;;;;;3.65;2.63;;;;;;;;;;6179900;23;20100;-75
2023/04/08 09:33:00;;;;;;;5.80;2.95;;;;;;;;;;6178416;23;20441;-75
2023/04/08 09:35:27;;;;;;;6.47;3.08;;;;;;;;;;6179425;23;20083;-75
2023/04/08 09:38:01;;;;;;;4.57;3.33;;;;;;;;;;6177484;23;20108;-74
2023/04/08 09:40:30;;;;;;;6.22;3.58;;;;;;;;;;6179169;23;20104;-74
2023/04/08 09:43:05;;;;;;;7.53;3.50;;;;;;;;;;6179184;23;20127;-75
2023/04/08 09:45:33;;;;;;;4.97;3.05;;;;;;;;;;6179072;23;20021;-74
2023/04/08 09:48:00;;;;;;;4.65;3.13;;;;;;;;;;6179905;23;20092;-75
2023/04/08 09:50:37;;;;;;;7.40;3.78;;;;;;;;;;6177715;23;20707;-74
2023/04/08 09:53:17;;;;;;;6.50;3.58;;;;;;;;;;6178123;23;20108;-75
2023/04/08 09:55:52;;;;;;;5.60;3.53;;;;;;;;;;6178437;23;20067;-75
2023/04/08 09:58:24;;;;;;;4.90;3.30;;;;;;;;;;6179606;23;20032;-75
2023/04/08 10:00:58;;;;;;;7.00;3.10;;;;;;;;;;6179887;23;20021;-75
2023/04/08 10:03:25;;;;;;;;;;;;;;;;;;6180464;23;20025;-75
2023/04/08 10:06:02;;;;;;;5.07;3.30;;;;;;;;;;6178545;23;20352;-75
2023/04/08 10:08:31;;;;;;;10.15;3.38;;;;;;;;;;6179226;23;20299;-75
2023/04/08 10:10:58;;;;;;;5.68;3.80;;;;;;;;;;6178032;23;20422;-76
2023/04/08 10:13:33;;;;;;;6.07;3.83;;;;;;;;;;6178084;23;20072;-76
2023/04/08 10:16:24;;;;;;;9.32;3.67;;;;;;;;;;6178082;23;20565;-76
2023/04/08 10:18:58;;;;;;;5.10;3.10;;;;;;;;;;6178095;23;20027;-75
2023/04/08 10:21:26;;;;;;;;;;;;;;;;;;6178450;23;20549;-75
2023/04/08 10:24:08;;;;;;;6.13;3.83;;;;;;;;;;6176555;23;19983;-76
2023/04/08 10:26:42;;;;;;;12.20;3.72;;;;;;;;;;6178396;23;20109;-76
2023/04/08 10:29:20;;;;;;;5.80;3.78;;;;;;;;;;6178274;23;20017;-75
2023/04/08 10:31:48;;;;;;;8.55;3.70;;;;;;;;;;6177871;23;20279;-75
2023/04/08 10:34:26;;;;;;;6.72;3.50;;;;;;;;;;6177468;23;20029;-75
2023/04/08 10:36:55;;;;;;;7.32;4.32;;;;;;;;;;6178945;23;20088;-74
2023/04/08 10:39:30;;;;;;;3.50;2.80;;;;;;;;;;6177588;23;20688;-75
2023/04/08 10:41:57;;;;;;;5.63;3.60;;;;;;;;;;6177747;23;20025;-75
2023/04/08 10:44:25;;;;;;;7.30;3.95;;;;;;;;;;6179229;23;20540;-76
2023/04/08 10:47:00;;;;;;;10.00;4.13;;;;;;;;;;6178710;23;20053;-75
2023/04/08 10:49:33;;;;;;;7.70;4.25;;;;;;;;;;6178113;23;20025;-75
2023/04/08 10:52:08;;;;;;;6.43;3.92;;;;;;;;;;6178515;23;20059;-74
2023/04/08 10:54:36;;;;;;;5.45;3.90;;;;;;;;;;6177230;23;20537;-74
2023/04/08 10:57:04;;;;;;;11.40;4.63;;;;;;;;;;6175023;23;20025;-75
2023/04/08 10:59:39;;;;;;;15.82;4.20;;;;;;;;;;6176873;23;20060;-74
2023/04/08 11:02:12;;;;;;;6.13;4.13;;;;;;;;;;6177287;23;20105;-74
2023/04/08 11:04:47;;;;;;;5.65;3.75;;;;;;;;;;6174794;23;20031;-74
2023/04/08 11:07:14;;;;;;;7.15;4.45;;;;;;;;;;6177262;23;20103;-73
2023/04/08 11:09:49;;;;;;;9.63;4.03;;;;;;;;;;6175833;23;20071;-74
2023/04/08 11:12:17;;;;;;;9.02;4.00;;;;;;;;;;6178598;23;20052;-74
2023/04/08 11:14:44;;;;;;;7.55;3.35;;;;;;;;;;6176539;23;20057;-74
2023/04/08 11:17:18;;;;;;;8.80;4.80;;;;;;;;;;6177963;23;20031;-73
2023/04/08 11:19:45;;;;;;;;;;;;;;;;;;6176572;23;20060;-74
2023/04/08 11:22:27;;;;;;;8.52;4.40;;;;;;;;;;6175663;23;19927;-74
2023/04/08 11:24:56;;;;;;;7.47;4.38;;;;;;;;;;6177650;23;20064;-76
2023/04/08 11:27:30;;;;;;;9.63;4.03;;;;;;;;;;6178619;23;20021;-74
2023/04/08 11:29:58;;;;;;;6.00;3.67;;;;;;;;;;6177737;23;20055;-75
2023/04/08 11:32:25;;;;;;;5.47;4.05;;;;;;;;;;6176338;23;20404;-74
2023/04/08 11:35:01;;;;;;;8.45;4.32;;;;;;;;;;6175277;23;20028;-73
2023/04/08 11:37:41;;;;;;;6.72;4.28;;;;;;;;;;6178036;23;20237;-74
2023/04/08 11:40:20;;;;;;;6.32;4.03;;;;;;;;;;6177607;23;20059;-74
2023/04/08 11:42:47;;;;;;;7.28;3.83;;;;;;;;;;6178245;23;20111;-74
2023/04/08 11:45:15;;;;;;;10.45;3.83;;;;;;;;;;6176279;23;20511;-74
2023/04/08 11:47:49;;;;;;;6.07;3.70;;;;;;;;;;6177981;23;20374;-74
2023/04/08 11:50:23;;;;;;;5.40;3.63;;;;;;;;;;6176894;23;20033;-74
2023/04/08 11:52:58;;;;;;;4.28;3.20;;;;;;;;;;6176297;23;20477;-74
2023/04/08 11:55:26;;;;;;;5.22;3.40;;;;;;;;;;6177140;23;20522;-75
2023/04/08 11:58:05;;;;;;;5.32;3.15;;;;;;;;;;6177994;23;20051;-74
2023/04/08 12:00:32;;;;;;;6.38;3.22;;;;;;;;;;6177230;23;20080;-74
2023/04/08 12:02:59;;;;;;;6.82;2.70;;;;;;;;;;6176137;23;20461;-74
2023/04/08 12:05:33;;;;;;;7.50;2.90;;;;;;;;;;6175959;23;20064;-74
2023/04/08 12:08:00;;;;;;;3.78;3.10;;;;;;;;;;6178250;23;20056;-75
2023/04/08 12:10:34;;;;;;;6.50;2.78;;;;;;;;;;6180277;23;20522;-74
2023/04/08 12:13:01;;;;;;;5.55;3.17;;;;;;;;;;6180560;23;20417;-75
2023/04/08 12:15:35;;;;;;;5.53;1.98;;;;;;;;;;6181209;23;20061;-75
2023/04/08 12:18:02;;;;;;;4.90;2.20;;;;;;;;;;6180811;23;20100;-74
2023/04/08 12:20:29;;;;;;;3.28;1.77;;;;;;;;;;6180110;23;20055;-74
2023/04/08 12:23:09;;;;;;;4.78;2.17;;;;;;;;;;6180303;23;20539;-74
2023/04/08 12:25:37;;;;;;;4.35;2.20;;;;;;;;;;6180264;23;20029;-75
2023/04/08 12:28:11;;;;;;;3.83;1.85;;;;;;;;;;6180149;23;20600;-75
2023/04/08 12:30:38;;;;;;;4.10;2.10;;;;;;;;;;6180039;23;20104;-75
2023/04/08 12:33:05;;;;;;;5.07;2.10;;;;;;;;;;6179456;23;20387;-75
2023/04/08 12:35:39;;;;;;;6.47;2.38;;;;;;;;;;6179129;23;20058;-74
2023/04/08 12:38:06;;;;;;;4.80;2.25;;;;;;;;;;6177495;23;20033;-75
2023/04/08 12:40:40;;;;;;;2.78;2.05;;;;;;;;;;6178919;23;20776;-74
2023/04/08 12:43:07;;;;;;;3.17;1.90;;;;;;;;;;6179045;23;20029;-75
2023/04/08 12:45:35;;;;;;;5.05;2.08;;;;;;;;;;6179401;23;20056;-75
2023/04/08 12:48:09;;;;;;;2.95;1.90;;;;;;;;;;6179286;23;20027;-75
2023/04/08 12:50:36;;;;;;;2.00;1.80;;;;;;;;;;6177384;23;20481;-74
2023/04/08 12:53:10;;;;;;;3.10;2.00;;;;;;;;;;6178999;23;20060;-75
2023/04/08 12:55:37;;;;;;;3.92;1.98;;;;;;;;;;6178494;23;20040;-75
2023/04/08 12:58:05;;;;;;;4.30;2.00;;;;;;;;;;6178649;23;20025;-75
2023/04/08 13:00:45;;;;;;;4.35;1.90;;;;;;;;;;6179776;23;20517;-75
2023/04/08 13:03:14;;;;;;;2.35;1.83;;;;;;;;;;6179476;23;20025;-75
2023/04/08 13:05:48;;;;;;;3.13;1.85;;;;;;;;;;6176205;23;20052;-76
2023/04/08 13:08:16;;;;;;;5.28;2.20;;;;;;;;;;6177832;23;20056;-74
2023/04/08 13:10:43;;;;;;;5.00;2.15;;;;;;;;;;6179354;23;20537;-74
2023/04/08 13:13:17;;;;;;;4.07;2.38;;;;;;;;;;6176513;23;20024;-74
2023/04/08 13:15:44;;;;;;;5.93;2.72;;;;;;;;;;6178355;23;20060;-75
2023/04/08 13:18:18;;;;;;;4.18;2.67;;;;;;;;;;6179209;23;20064;-74
2023/04/08 13:20:53;;;;;;;8.27;2.90;;;;;;;;;;6178191;23;20744;-74
2023/04/08 13:23:33;;;;;;;3.22;2.38;;;;;;;;;;6177145;23;20017;-75
2023/04/08 13:26:01;;;;;;;3.53;2.22;;;;;;;;;;6175298;23;20059;-75
2023/04/08 13:28:35;;;;;;;2.70;1.95;;;;;;;;;;6177124;23;20139;-75
2023/04/08 13:31:22;;;;;;;2.50;1.90;;;;;;;;;;6177981;23;20021;-74
2023/04/08 13:33:56;;;;;;;3.40;1.98;;;;;;;;;;6177380;23;20029;-74
2023/04/08 13:36:25;;;;;;;3.03;1.50;;;;;;;;;;6176783;23;20032;-74
2023/04/08 13:38:53;;;;;;;2.00;1.60;;;;;;;;;;6178345;23;20029;-74
2023/04/08 13:41:27;;;;;;;2.30;1.90;;;;;;;;;;6179219;23;20055;-75
2023/04/08 13:43:55;;;;;;;;;;;;;;;;;;6178564;23;20439;-74
2023/04/08 13:46:29;;;;;;;2.95;1.23;;;;;;;;;;6176280;23;19920;-75
2023/04/08 13:48:56;;;;;;;2.80;2.00;;;;;;;;;;6179575;23;20077;-74
2023/04/08 13:51:24;;;;;;;2.42;1.73;;;;;;;;;;6178921;23;20028;-75
2023/04/08 13:53:58;;;;;;;2.35;1.60;;;;;;;;;;6178921;23;20028;-74
2023/04/08 13:56:25;;;;;;;2.58;1.88;;;;;;;;;;6175761;23;20053;-75
2023/04/08 13:58:59;;;;;;;2.60;1.30;;;;;;;;;;6178385;23;20029;-74
2023/04/08 14:01:26;;;;;;;;;;;;;;;;;;6178957;23;20079;-75
2023/04/08 14:03:54;;;;;;;2.95;1.92;;;;;;;;;;6177722;23;19927;-75
2023/04/08 14:06:28;;;;;;;2.55;1.27;;;;;;;;;;6178227;23;20075;-76
2023/04/08 14:08:55;;;;;;;;;;;;;;;;;;6178655;23;20044;-74
2023/04/08 14:11:29;;;;;;;2.08;1.50;;;;;;;;;;6178121;23;19927;-74
2023/04/08 14:13:56;;;;;;;2.13;1.52;;;;;;;;;;6176746;23;20055;-74
2023/04/08 14:16:23;;;;;;;3.13;1.67;;;;;;;;;;6177957;23;20075;-74
2023/04/08 14:18:57;;;;;;;1.63;1.15;;;;;;;;;;6178634;23;20029;-74
2023/04/08 14:21:24;;;;;;;3.05;1.48;;;;;;;;;;6177695;23;20025;-75
2023/04/08 14:23:58;;;;;;;1.52;1.13;;;;;;;;;;6178196;23;20347;-74
2023/04/08 14:26:28;;;;;;;1.35;1.08;;;;;;;;;;6177826;23;20025;-75
2023/04/08 14:28:55;;;;;;;1.55;1.15;;;;;;;;;;6179507;23;20397;-74
2023/04/08 14:31:29;;;;;;;2.40;1.42;;;;;;;;;;6177302;23;20048;-75
2023/04/08 14:33:56;;;;;;;2.60;1.38;;;;;;;;;;6178079;23;20100;-74
2023/04/08 14:36:33;;;;;;;1.48;1.27;;;;;;;;;;6178415;23;20096;-75
2023/04/08 14:39:00;;;;;;;2.35;1.20;;;;;;;;;;6177540;23;20029;-74
2023/04/08 14:41:34;;;;;;;1.60;1.30;;;;;;;;;;6174179;23;20023;-75
2023/04/08 14:44:01;;;;;;;1.65;1.30;;;;;;;;;;6178070;23;20071;-75
2023/04/08 14:46:28;;;;;;;2.10;1.17;;;;;;;;;;6179452;23;20370;-75
2023/04/08 14:49:02;;;;;;;4.22;1.25;;;;;;;;;;6178103;23;20025;-74
2023/04/08 14:51:30;;;;;;;1.50;1.10;;;;;;;;;;6178172;23;20064;-75
2023/04/08 14:54:04;;;;;;;2.15;1.27;;;;;;;;;;6176119;23;20027;-74
2023/04/08 14:56:32;;;;;;;;;;;;;;;;;;6176961;23;20039;-75
2023/04/08 14:58:59;;;;;;;1.30;0.98;;;;;;;;;;6176091;23;19992;-74
2023/04/08 15:01:34;;;;;;;1.17;1.00;;;;;;;;;;6177503;23;20063;-75
2023/04/08 15:04:01;;;;;;;3.22;1.67;;;;;;;;;;6175261;23;20056;-74
2023/04/08 15:06:29;;;;;;;1.92;1.50;;;;;;;;;;6176438;23;20029;-75
2023/04/08 15:09:03;;;;;;;4.38;1.45;;;;;;;;;;6177035;23;20021;-75
2023/04/08 15:11:30;;;;;;;1.20;1.10;;;;;;;;;;6176810;23;20080;-75
2023/04/08 15:14:04;;;;;;;1.42;1.20;;;;;;;;;;6174679;23;20017;-75